Terminal Aerodrome Forecast
Issued by NWS Paducah, KY

Home | Current Version | Previous Version | Text Only | Print | Product List | Glossary On
Versions: 1 2 3 4 5 6 7 8 9 10 11 12 13 14
094
FTUS43 KPAH 281039 AAA
TAFEVV
TAF AMD
KEVV 281039Z 2811/2906 00000KT 6SM BR SKC
      TEMPO 2811/2813 2SM BR
     FM281400 02002KT P6SM SCT060
     FM282000 04005KT P6SM SKC=

USA.gov is the U.S. government's official web portal to all federal, state and local government web resources and services.